sensor_id;sensor_type;location;lat;lon;timestamp;P1;durP1;ratioP1;P2;durP2;ratioP2
76612;SDS011;65507;48.454;-2.058;2022-12-18T00:01:35;21.10;;;10.13;;
76612;SDS011;65507;48.454;-2.058;2022-12-18T00:04:03;21.30;;;10.00;;
76612;SDS011;65507;48.454;-2.058;2022-12-18T00:06:30;27.35;;;11.23;;
76612;SDS011;65507;48.454;-2.058;2022-12-18T00:08:58;24.83;;;9.48;;
76612;SDS011;65507;48.454;-2.058;2022-12-18T00:11:26;24.63;;;10.82;;
76612;SDS011;65507;48.454;-2.058;2022-12-18T00:13:54;23.70;;;11.25;;
76612;SDS011;65507;48.454;-2.058;2022-12-18T00:16:22;22.45;;;10.57;;
76612;SDS011;65507;48.454;-2.058;2022-12-18T00:18:50;22.58;;;10.55;;
76612;SDS011;65507;48.454;-2.058;2022-12-18T00:21:17;24.88;;;10.98;;
76612;SDS011;65507;48.454;-2.058;2022-12-18T00:23:44;24.37;;;10.70;;
76612;SDS011;65507;48.454;-2.058;2022-12-18T00:26:12;24.75;;;10.85;;
76612;SDS011;65507;48.454;-2.058;2022-12-18T00:28:40;26.05;;;10.43;;
76612;SDS011;65507;48.454;-2.058;2022-12-18T00:31:10;25.90;;;10.93;;
76612;SDS011;65507;48.454;-2.058;2022-12-18T00:33:38;28.77;;;11.23;;
76612;SDS011;65507;48.454;-2.058;2022-12-18T00:36:07;36.08;;;10.88;;
76612;SDS011;65507;48.454;-2.058;2022-12-18T00:38:38;25.73;;;11.10;;
76612;SDS011;65507;48.454;-2.058;2022-12-18T00:41:05;25.65;;;10.98;;
76612;SDS011;65507;48.454;-2.058;2022-12-18T00:43:31;24.65;;;10.70;;
76612;SDS011;65507;48.454;-2.058;2022-12-18T00:45:58;25.05;;;11.45;;
76612;SDS011;65507;48.454;-2.058;2022-12-18T00:48:24;25.85;;;11.43;;
76612;SDS011;65507;48.454;-2.058;2022-12-18T00:50:50;23.42;;;10.70;;
76612;SDS011;65507;48.454;-2.058;2022-12-18T00:53:16;31.33;;;10.65;;
76612;SDS011;65507;48.454;-2.058;2022-12-18T00:55:42;28.08;;;10.93;;
76612;SDS011;65507;48.454;-2.058;2022-12-18T00:58:09;23.35;;;9.73;;
76612;SDS011;65507;48.454;-2.058;2022-12-18T01:00:36;28.55;;;12.32;;
76612;SDS011;65507;48.454;-2.058;2022-12-18T01:03:03;23.77;;;9.98;;
76612;SDS011;65507;48.454;-2.058;2022-12-18T01:05:29;27.77;;;11.00;;
76612;SDS011;65507;48.454;-2.058;2022-12-18T01:07:55;27.17;;;11.52;;
76612;SDS011;65507;48.454;-2.058;2022-12-18T01:10:22;26.63;;;10.52;;
76612;SDS011;65507;48.454;-2.058;2022-12-18T01:12:48;23.67;;;10.85;;
76612;SDS011;65507;48.454;-2.058;2022-12-18T01:15:14;29.08;;;10.30;;
76612;SDS011;65507;48.454;-2.058;2022-12-18T01:17:41;28.33;;;10.43;;
76612;SDS011;65507;48.454;-2.058;2022-12-18T01:20:08;21.25;;;10.52;;
76612;SDS011;65507;48.454;-2.058;2022-12-18T01:22:36;23.73;;;10.32;;
76612;SDS011;65507;48.454;-2.058;2022-12-18T01:25:03;25.27;;;10.65;;
76612;SDS011;65507;48.454;-2.058;2022-12-18T01:27:29;24.60;;;11.10;;
76612;SDS011;65507;48.454;-2.058;2022-12-18T01:29:55;26.15;;;11.85;;
76612;SDS011;65507;48.454;-2.058;2022-12-18T01:32:21;27.45;;;10.73;;
76612;SDS011;65507;48.454;-2.058;2022-12-18T01:34:47;26.08;;;11.23;;
76612;SDS011;65507;48.454;-2.058;2022-12-18T01:37:12;28.25;;;10.90;;
76612;SDS011;65507;48.454;-2.058;2022-12-18T01:39:38;26.65;;;11.25;;
76612;SDS011;65507;48.454;-2.058;2022-12-18T01:42:08;28.50;;;12.45;;
76612;SDS011;65507;48.454;-2.058;2022-12-18T01:50:37;26.30;;;10.02;;
76612;SDS011;65507;48.454;-2.058;2022-12-18T01:53:06;22.80;;;11.15;;
76612;SDS011;65507;48.454;-2.058;2022-12-18T01:55:48;29.30;;;12.38;;
76612;SDS011;65507;48.454;-2.058;2022-12-18T01:58:19;29.77;;;9.55;;
76612;SDS011;65507;48.454;-2.058;2022-12-18T02:00:49;27.17;;;10.57;;
76612;SDS011;65507;48.454;-2.058;2022-12-18T02:03:14;23.15;;;9.95;;
76612;SDS011;65507;48.454;-2.058;2022-12-18T02:14:00;21.75;;;10.27;;
76612;SDS011;65507;48.454;-2.058;2022-12-18T02:16:55;26.67;;;10.80;;
76612;SDS011;65507;48.454;-2.058;2022-12-18T02:27:29;25.88;;;10.55;;
76612;SDS011;65507;48.454;-2.058;2022-12-18T02:29:57;26.75;;;10.60;;
76612;SDS011;65507;48.454;-2.058;2022-12-18T02:32:27;23.52;;;10.25;;
76612;SDS011;65507;48.454;-2.058;2022-12-18T02:34:57;26.33;;;10.70;;
76612;SDS011;65507;48.454;-2.058;2022-12-18T02:37:24;29.00;;;11.07;;
76612;SDS011;65507;48.454;-2.058;2022-12-18T02:39:53;25.20;;;10.88;;
76612;SDS011;65507;48.454;-2.058;2022-12-18T02:42:21;24.85;;;10.52;;
76612;SDS011;65507;48.454;-2.058;2022-12-18T02:44:49;27.63;;;10.95;;
76612;SDS011;65507;48.454;-2.058;2022-12-18T02:47:23;25.23;;;9.65;;
76612;SDS011;65507;48.454;-2.058;2022-12-18T02:53:00;26.98;;;10.95;;
76612;SDS011;65507;48.454;-2.058;2022-12-18T03:00:58;29.13;;;10.57;;
76612;SDS011;65507;48.454;-2.058;2022-12-18T03:03:59;20.70;;;10.30;;
76612;SDS011;65507;48.454;-2.058;2022-12-18T03:06:41;27.35;;;10.98;;
76612;SDS011;65507;48.454;-2.058;2022-12-18T03:09:15;21.88;;;9.63;;
76612;SDS011;65507;48.454;-2.058;2022-12-18T03:11:47;25.33;;;10.10;;
76612;SDS011;65507;48.454;-2.058;2022-12-18T03:14:36;23.23;;;10.70;;
76612;SDS011;65507;48.454;-2.058;2022-12-18T03:17:05;26.52;;;10.48;;
76612;SDS011;65507;48.454;-2.058;2022-12-18T03:19:38;23.52;;;10.52;;
76612;SDS011;65507;48.454;-2.058;2022-12-18T03:22:05;23.33;;;10.27;;
76612;SDS011;65507;48.454;-2.058;2022-12-18T03:24:33;22.52;;;9.85;;
76612;SDS011;65507;48.454;-2.058;2022-12-18T03:27:05;25.38;;;10.85;;
76612;SDS011;65507;48.454;-2.058;2022-12-18T03:29:36;23.80;;;9.77;;
76612;SDS011;65507;48.454;-2.058;2022-12-18T03:32:09;25.55;;;10.77;;
76612;SDS011;65507;48.454;-2.058;2022-12-18T03:34:40;22.15;;;9.27;;
76612;SDS011;65507;48.454;-2.058;2022-12-18T03:37:09;23.65;;;11.27;;
76612;SDS011;65507;48.454;-2.058;2022-12-18T03:39:38;21.65;;;10.18;;
76612;SDS011;65507;48.454;-2.058;2022-12-18T03:47:44;24.92;;;11.77;;
76612;SDS011;65507;48.454;-2.058;2022-12-18T03:55:52;23.30;;;9.57;;
76612;SDS011;65507;48.454;-2.058;2022-12-18T03:58:20;22.58;;;10.00;;
76612;SDS011;65507;48.454;-2.058;2022-12-18T04:00:49;23.50;;;9.90;;
76612;SDS011;65507;48.454;-2.058;2022-12-18T04:03:18;26.25;;;10.27;;
76612;SDS011;65507;48.454;-2.058;2022-12-18T04:05:45;20.55;;;9.68;;
76612;SDS011;65507;48.454;-2.058;2022-12-18T04:08:13;20.98;;;10.10;;
76612;SDS011;65507;48.454;-2.058;2022-12-18T04:10:39;22.63;;;9.70;;
76612;SDS011;65507;48.454;-2.058;2022-12-18T04:13:04;19.05;;;9.20;;
76612;SDS011;65507;48.454;-2.058;2022-12-18T04:15:31;21.63;;;9.65;;
76612;SDS011;65507;48.454;-2.058;2022-12-18T04:17:59;23.75;;;9.85;;
76612;SDS011;65507;48.454;-2.058;2022-12-18T04:20:25;21.98;;;9.73;;
76612;SDS011;65507;48.454;-2.058;2022-12-18T04:22:51;22.40;;;10.23;;
76612;SDS011;65507;48.454;-2.058;2022-12-18T04:25:16;24.05;;;9.90;;
76612;SDS011;65507;48.454;-2.058;2022-12-18T04:27:42;25.52;;;10.50;;
76612;SDS011;65507;48.454;-2.058;2022-12-18T04:30:08;21.65;;;10.02;;
76612;SDS011;65507;48.454;-2.058;2022-12-18T04:32:34;25.88;;;10.30;;
76612;SDS011;65507;48.454;-2.058;2022-12-18T04:35:00;23.25;;;10.88;;
76612;SDS011;65507;48.454;-2.058;2022-12-18T04:37:26;24.55;;;11.38;;
76612;SDS011;65507;48.454;-2.058;2022-12-18T04:39:51;25.08;;;10.10;;
76612;SDS011;65507;48.454;-2.058;2022-12-18T04:42:17;25.00;;;11.50;;
76612;SDS011;65507;48.454;-2.058;2022-12-18T04:44:43;22.52;;;10.20;;
76612;SDS011;65507;48.454;-2.058;2022-12-18T04:47:09;23.75;;;10.13;;
76612;SDS011;65507;48.454;-2.058;2022-12-18T04:49:35;21.83;;;9.60;;
76612;SDS011;65507;48.454;-2.058;2022-12-18T04:52:00;24.30;;;9.90;;
76612;SDS011;65507;48.454;-2.058;2022-12-18T04:54:26;24.98;;;10.73;;
76612;SDS011;65507;48.454;-2.058;2022-12-18T04:56:52;27.90;;;10.48;;
76612;SDS011;65507;48.454;-2.058;2022-12-18T04:59:18;26.10;;;10.57;;
76612;SDS011;65507;48.454;-2.058;2022-12-18T05:01:43;19.60;;;9.02;;
76612;SDS011;65507;48.454;-2.058;2022-12-18T05:04:10;25.05;;;9.85;;
76612;SDS011;65507;48.454;-2.058;2022-12-18T05:06:36;23.52;;;10.88;;
76612;SDS011;65507;48.454;-2.058;2022-12-18T05:09:02;23.48;;;9.70;;
76612;SDS011;65507;48.454;-2.058;2022-12-18T05:11:28;19.33;;;9.63;;
76612;SDS011;65507;48.454;-2.058;2022-12-18T05:13:56;19.67;;;9.27;;
76612;SDS011;65507;48.454;-2.058;2022-12-18T05:16:22;21.75;;;9.43;;
76612;SDS011;65507;48.454;-2.058;2022-12-18T05:18:48;21.60;;;9.65;;
76612;SDS011;65507;48.454;-2.058;2022-12-18T05:21:13;24.25;;;10.05;;
76612;SDS011;65507;48.454;-2.058;2022-12-18T05:23:39;21.63;;;10.23;;
76612;SDS011;65507;48.454;-2.058;2022-12-18T05:26:05;24.95;;;9.80;;
76612;SDS011;65507;48.454;-2.058;2022-12-18T05:28:33;22.08;;;10.32;;
76612;SDS011;65507;48.454;-2.058;2022-12-18T05:31:00;28.52;;;11.38;;
76612;SDS011;65507;48.454;-2.058;2022-12-18T05:33:29;27.55;;;9.93;;
76612;SDS011;65507;48.454;-2.058;2022-12-18T05:35:57;23.05;;;10.50;;
76612;SDS011;65507;48.454;-2.058;2022-12-18T05:38:27;27.63;;;10.77;;
76612;SDS011;65507;48.454;-2.058;2022-12-18T05:40:54;23.88;;;10.15;;
76612;SDS011;65507;48.454;-2.058;2022-12-18T05:43:22;26.20;;;10.48;;
76612;SDS011;65507;48.454;-2.058;2022-12-18T05:45:48;22.40;;;9.73;;
76612;SDS011;65507;48.454;-2.058;2022-12-18T05:48:14;24.00;;;10.70;;
76612;SDS011;65507;48.454;-2.058;2022-12-18T05:50:41;23.42;;;9.75;;
76612;SDS011;65507;48.454;-2.058;2022-12-18T05:53:08;22.50;;;9.48;;
76612;SDS011;65507;48.454;-2.058;2022-12-18T05:55:37;28.23;;;11.63;;
76612;SDS011;65507;48.454;-2.058;2022-12-18T05:58:05;25.20;;;9.77;;
76612;SDS011;65507;48.454;-2.058;2022-12-18T06:00:36;28.20;;;10.93;;
76612;SDS011;65507;48.454;-2.058;2022-12-18T06:03:07;24.02;;;9.82;;
76612;SDS011;65507;48.454;-2.058;2022-12-18T06:05:34;21.55;;;10.02;;
76612;SDS011;65507;48.454;-2.058;2022-12-18T06:08:02;24.95;;;10.82;;
76612;SDS011;65507;48.454;-2.058;2022-12-18T06:10:28;18.17;;;9.48;;
76612;SDS011;65507;48.454;-2.058;2022-12-18T06:12:53;23.17;;;10.32;;
76612;SDS011;65507;48.454;-2.058;2022-12-18T06:15:19;21.80;;;10.77;;
76612;SDS011;65507;48.454;-2.058;2022-12-18T06:17:45;26.70;;;10.93;;
76612;SDS011;65507;48.454;-2.058;2022-12-18T06:20:10;26.70;;;10.98;;
76612;SDS011;65507;48.454;-2.058;2022-12-18T06:22:36;20.13;;;10.38;;
76612;SDS011;65507;48.454;-2.058;2022-12-18T06:25:02;21.90;;;10.25;;
76612;SDS011;65507;48.454;-2.058;2022-12-18T06:27:29;27.15;;;12.02;;
76612;SDS011;65507;48.454;-2.058;2022-12-18T06:29:54;25.83;;;10.68;;
76612;SDS011;65507;48.454;-2.058;2022-12-18T06:32:20;28.73;;;12.93;;
76612;SDS011;65507;48.454;-2.058;2022-12-18T06:34:46;29.40;;;11.98;;
76612;SDS011;65507;48.454;-2.058;2022-12-18T06:37:11;26.40;;;11.85;;
76612;SDS011;65507;48.454;-2.058;2022-12-18T06:39:37;28.75;;;11.82;;
76612;SDS011;65507;48.454;-2.058;2022-12-18T06:42:03;22.80;;;10.40;;
76612;SDS011;65507;48.454;-2.058;2022-12-18T06:44:29;26.48;;;10.20;;
76612;SDS011;65507;48.454;-2.058;2022-12-18T06:46:55;28.02;;;12.27;;
76612;SDS011;65507;48.454;-2.058;2022-12-18T06:49:20;22.50;;;10.20;;
76612;SDS011;65507;48.454;-2.058;2022-12-18T06:51:46;27.50;;;11.23;;
76612;SDS011;65507;48.454;-2.058;2022-12-18T06:54:12;26.52;;;10.95;;
76612;SDS011;65507;48.454;-2.058;2022-12-18T06:56:38;26.25;;;11.10;;
76612;SDS011;65507;48.454;-2.058;2022-12-18T06:59:03;26.27;;;10.32;;
76612;SDS011;65507;48.454;-2.058;2022-12-18T07:01:29;24.20;;;11.13;;
76612;SDS011;65507;48.454;-2.058;2022-12-18T07:03:55;24.80;;;10.05;;
76612;SDS011;65507;48.454;-2.058;2022-12-18T07:06:22;24.97;;;11.43;;
76612;SDS011;65507;48.454;-2.058;2022-12-18T07:08:49;23.45;;;10.38;;
76612;SDS011;65507;48.454;-2.058;2022-12-18T07:11:16;27.60;;;11.80;;
76612;SDS011;65507;48.454;-2.058;2022-12-18T07:13:43;26.05;;;11.80;;
76612;SDS011;65507;48.454;-2.058;2022-12-18T07:16:10;25.45;;;10.70;;
76612;SDS011;65507;48.454;-2.058;2022-12-18T07:18:37;26.10;;;10.48;;
76612;SDS011;65507;48.454;-2.058;2022-12-18T07:21:06;25.13;;;10.57;;
76612;SDS011;65507;48.454;-2.058;2022-12-18T07:23:33;20.33;;;9.68;;
76612;SDS011;65507;48.454;-2.058;2022-12-18T07:26:03;27.42;;;11.93;;
76612;SDS011;65507;48.454;-2.058;2022-12-18T07:28:31;25.83;;;11.27;;
76612;SDS011;65507;48.454;-2.058;2022-12-18T07:30:57;27.08;;;11.48;;
76612;SDS011;65507;48.454;-2.058;2022-12-18T07:33:24;24.65;;;10.80;;
76612;SDS011;65507;48.454;-2.058;2022-12-18T07:35:50;24.00;;;11.53;;
76612;SDS011;65507;48.454;-2.058;2022-12-18T07:38:16;24.02;;;10.77;;
76612;SDS011;65507;48.454;-2.058;2022-12-18T07:40:41;23.27;;;10.93;;
76612;SDS011;65507;48.454;-2.058;2022-12-18T07:43:07;23.92;;;11.63;;
76612;SDS011;65507;48.454;-2.058;2022-12-18T07:45:33;24.45;;;10.82;;
76612;SDS011;65507;48.454;-2.058;2022-12-18T07:47:59;21.92;;;9.45;;
76612;SDS011;65507;48.454;-2.058;2022-12-18T07:50:24;29.20;;;11.88;;
76612;SDS011;65507;48.454;-2.058;2022-12-18T07:52:50;22.60;;;9.80;;
76612;SDS011;65507;48.454;-2.058;2022-12-18T07:55:16;25.95;;;11.10;;
76612;SDS011;65507;48.454;-2.058;2022-12-18T07:57:41;23.33;;;10.75;;
76612;SDS011;65507;48.454;-2.058;2022-12-18T08:00:07;25.70;;;10.75;;
76612;SDS011;65507;48.454;-2.058;2022-12-18T08:02:33;25.27;;;10.35;;
76612;SDS011;65507;48.454;-2.058;2022-12-18T08:04:59;28.63;;;11.20;;
76612;SDS011;65507;48.454;-2.058;2022-12-18T08:07:25;30.50;;;11.98;;
76612;SDS011;65507;48.454;-2.058;2022-12-18T08:09:50;27.00;;;11.15;;
76612;SDS011;65507;48.454;-2.058;2022-12-18T08:12:16;27.58;;;11.23;;
76612;SDS011;65507;48.454;-2.058;2022-12-18T08:14:42;25.38;;;11.45;;
76612;SDS011;65507;48.454;-2.058;2022-12-18T08:17:07;27.40;;;11.02;;
76612;SDS011;65507;48.454;-2.058;2022-12-18T08:19:33;28.70;;;11.77;;
76612;SDS011;65507;48.454;-2.058;2022-12-18T08:21:59;26.45;;;10.70;;
76612;SDS011;65507;48.454;-2.058;2022-12-18T08:24:24;30.08;;;10.27;;
76612;SDS011;65507;48.454;-2.058;2022-12-18T08:26:50;28.90;;;11.48;;
76612;SDS011;65507;48.454;-2.058;2022-12-18T08:29:16;23.02;;;9.18;;
76612;SDS011;65507;48.454;-2.058;2022-12-18T08:31:42;24.02;;;10.52;;
76612;SDS011;65507;48.454;-2.058;2022-12-18T08:34:08;19.73;;;9.13;;
76612;SDS011;65507;48.454;-2.058;2022-12-18T08:36:34;24.80;;;10.27;;
76612;SDS011;65507;48.454;-2.058;2022-12-18T08:39:01;25.70;;;9.55;;
76612;SDS011;65507;48.454;-2.058;2022-12-18T08:41:27;25.15;;;9.85;;
76612;SDS011;65507;48.454;-2.058;2022-12-18T08:43:53;21.88;;;9.90;;
76612;SDS011;65507;48.454;-2.058;2022-12-18T08:46:38;19.48;;;9.02;;
76612;SDS011;65507;48.454;-2.058;2022-12-18T08:49:05;25.40;;;9.98;;
76612;SDS011;65507;48.454;-2.058;2022-12-18T08:51:32;21.88;;;10.38;;
76612;SDS011;65507;48.454;-2.058;2022-12-18T08:53:58;26.65;;;9.70;;
76612;SDS011;65507;48.454;-2.058;2022-12-18T08:56:24;19.95;;;8.63;;
76612;SDS011;65507;48.454;-2.058;2022-12-18T08:58:53;19.90;;;9.38;;
76612;SDS011;65507;48.454;-2.058;2022-12-18T09:01:20;25.55;;;10.10;;
76612;SDS011;65507;48.454;-2.058;2022-12-18T09:03:46;19.42;;;8.68;;
76612;SDS011;65507;48.454;-2.058;2022-12-18T09:06:16;17.75;;;8.98;;
76612;SDS011;65507;48.454;-2.058;2022-12-18T09:08:46;21.42;;;9.65;;
76612;SDS011;65507;48.454;-2.058;2022-12-18T09:11:18;17.60;;;9.45;;
76612;SDS011;65507;48.454;-2.058;2022-12-18T09:13:48;23.33;;;9.45;;
76612;SDS011;65507;48.454;-2.058;2022-12-18T09:16:15;19.73;;;9.27;;
76612;SDS011;65507;48.454;-2.058;2022-12-18T09:18:41;22.40;;;9.73;;
76612;SDS011;65507;48.454;-2.058;2022-12-18T09:21:17;21.83;;;9.70;;
76612;SDS011;65507;48.454;-2.058;2022-12-18T09:23:48;20.45;;;9.68;;
76612;SDS011;65507;48.454;-2.058;2022-12-18T09:26:18;17.83;;;8.68;;
76612;SDS011;65507;48.454;-2.058;2022-12-18T09:28:44;19.65;;;8.90;;
76612;SDS011;65507;48.454;-2.058;2022-12-18T09:31:10;20.98;;;9.63;;
76612;SDS011;65507;48.454;-2.058;2022-12-18T09:33:44;16.90;;;8.18;;
76612;SDS011;65507;48.454;-2.058;2022-12-18T09:36:11;17.30;;;8.75;;
76612;SDS011;65507;48.454;-2.058;2022-12-18T09:38:38;21.52;;;8.88;;
76612;SDS011;65507;48.454;-2.058;2022-12-18T09:41:05;15.98;;;7.72;;
76612;SDS011;65507;48.454;-2.058;2022-12-18T09:43:47;20.20;;;9.05;;
76612;SDS011;65507;48.454;-2.058;2022-12-18T09:46:17;18.40;;;8.90;;
76612;SDS011;65507;48.454;-2.058;2022-12-18T09:48:50;16.85;;;8.40;;
76612;SDS011;65507;48.454;-2.058;2022-12-18T09:51:22;15.65;;;8.50;;
76612;SDS011;65507;48.454;-2.058;2022-12-18T09:53:55;14.25;;;7.25;;
76612;SDS011;65507;48.454;-2.058;2022-12-18T09:56:25;14.45;;;8.57;;
76612;SDS011;65507;48.454;-2.058;2022-12-18T09:59:01;17.75;;;8.48;;
76612;SDS011;65507;48.454;-2.058;2022-12-18T10:01:28;15.55;;;8.15;;
76612;SDS011;65507;48.454;-2.058;2022-12-18T10:03:55;16.38;;;8.10;;
76612;SDS011;65507;48.454;-2.058;2022-12-18T10:06:35;20.38;;;8.30;;
76612;SDS011;65507;48.454;-2.058;2022-12-18T10:12:26;17.70;;;8.07;;
76612;SDS011;65507;48.454;-2.058;2022-12-18T10:17:45;18.20;;;7.47;;
76612;SDS011;65507;48.454;-2.058;2022-12-18T10:20:32;17.02;;;7.25;;
76612;SDS011;65507;48.454;-2.058;2022-12-18T10:25:53;13.18;;;7.75;;
76612;SDS011;65507;48.454;-2.058;2022-12-18T10:28:25;17.13;;;8.20;;
76612;SDS011;65507;48.454;-2.058;2022-12-18T10:30:54;15.80;;;7.50;;
76612;SDS011;65507;48.454;-2.058;2022-12-18T10:33:21;14.95;;;7.78;;
76612;SDS011;65507;48.454;-2.058;2022-12-18T10:35:49;19.35;;;8.75;;
76612;SDS011;65507;48.454;-2.058;2022-12-18T10:43:29;16.08;;;7.82;;
76612;SDS011;65507;48.454;-2.058;2022-12-18T10:48:34;17.52;;;7.75;;
76612;SDS011;65507;48.454;-2.058;2022-12-18T10:51:04;15.40;;;7.35;;
76612;SDS011;65507;48.454;-2.058;2022-12-18T10:53:32;16.00;;;8.05;;
76612;SDS011;65507;48.454;-2.058;2022-12-18T10:56:00;11.77;;;6.80;;
76612;SDS011;65507;48.454;-2.058;2022-12-18T10:58:31;14.73;;;7.05;;
76612;SDS011;65507;48.454;-2.058;2022-12-18T11:06:20;11.68;;;6.65;;
76612;SDS011;65507;48.454;-2.058;2022-12-18T11:09:05;15.65;;;6.30;;
76612;SDS011;65507;48.454;-2.058;2022-12-18T11:11:48;17.73;;;6.22;;
76612;SDS011;65507;48.454;-2.058;2022-12-18T11:15:03;13.90;;;6.47;;
76612;SDS011;65507;48.454;-2.058;2022-12-18T11:17:20;11.55;;;6.95;;
76612;SDS011;65507;48.454;-2.058;2022-12-18T11:19:53;11.07;;;6.53;;
76612;SDS011;65507;48.454;-2.058;2022-12-18T11:22:22;12.30;;;7.07;;
76612;SDS011;65507;48.454;-2.058;2022-12-18T11:27:27;13.65;;;6.75;;
76612;SDS011;65507;48.454;-2.058;2022-12-18T11:30:07;12.10;;;6.90;;
76612;SDS011;65507;48.454;-2.058;2022-12-18T11:32:56;15.38;;;7.10;;
76612;SDS011;65507;48.454;-2.058;2022-12-18T11:38:26;11.50;;;6.35;;
76612;SDS011;65507;48.454;-2.058;2022-12-18T11:43:40;14.20;;;7.85;;
76612;SDS011;65507;48.454;-2.058;2022-12-18T11:46:12;11.57;;;7.05;;
76612;SDS011;65507;48.454;-2.058;2022-12-18T11:51:27;12.27;;;6.80;;
76612;SDS011;65507;48.454;-2.058;2022-12-18T11:53:58;10.52;;;6.95;;
76612;SDS011;65507;48.454;-2.058;2022-12-18T11:56:30;13.95;;;6.97;;
76612;SDS011;65507;48.454;-2.058;2022-12-18T11:59:08;12.40;;;7.07;;
76612;SDS011;65507;48.454;-2.058;2022-12-18T12:04:53;11.35;;;7.13;;
76612;SDS011;65507;48.454;-2.058;2022-12-18T12:34:23;11.80;;;7.07;;
76612;SDS011;65507;48.454;-2.058;2022-12-18T12:37:16;11.63;;;6.03;;
76612;SDS011;65507;48.454;-2.058;2022-12-18T12:39:46;11.05;;;6.60;;
76612;SDS011;65507;48.454;-2.058;2022-12-18T12:42:19;11.85;;;6.63;;
76612;SDS011;65507;48.454;-2.058;2022-12-18T12:45:48;12.60;;;6.80;;
76612;SDS011;65507;48.454;-2.058;2022-12-18T12:51:19;10.43;;;6.50;;
76612;SDS011;65507;48.454;-2.058;2022-12-18T12:54:01;12.85;;;7.32;;
76612;SDS011;65507;48.454;-2.058;2022-12-18T12:56:37;11.68;;;6.72;;
76612;SDS011;65507;48.454;-2.058;2022-12-18T12:59:18;14.15;;;7.20;;
76612;SDS011;65507;48.454;-2.058;2022-12-18T13:12:41;17.05;;;8.30;;
76612;SDS011;65507;48.454;-2.058;2022-12-18T13:20:34;15.13;;;8.55;;
76612;SDS011;65507;48.454;-2.058;2022-12-18T13:23:01;13.57;;;7.47;;
76612;SDS011;65507;48.454;-2.058;2022-12-18T13:31:06;13.32;;;8.20;;
76612;SDS011;65507;48.454;-2.058;2022-12-18T13:36:44;16.33;;;8.60;;
76612;SDS011;65507;48.454;-2.058;2022-12-18T13:41:46;18.33;;;9.32;;
76612;SDS011;65507;48.454;-2.058;2022-12-18T13:44:30;16.73;;;9.25;;
76612;SDS011;65507;48.454;-2.058;2022-12-18T13:46:57;18.92;;;9.20;;
76612;SDS011;65507;48.454;-2.058;2022-12-18T13:49:31;17.15;;;9.20;;
76612;SDS011;65507;48.454;-2.058;2022-12-18T13:51:57;17.73;;;8.95;;
76612;SDS011;65507;48.454;-2.058;2022-12-18T13:57:01;16.63;;;8.90;;
76612;SDS011;65507;48.454;-2.058;2022-12-18T13:59:34;20.38;;;9.90;;
76612;SDS011;65507;48.454;-2.058;2022-12-18T14:02:17;18.10;;;9.43;;
76612;SDS011;65507;48.454;-2.058;2022-12-18T14:04:47;18.40;;;9.52;;
76612;SDS011;65507;48.454;-2.058;2022-12-18T14:09:42;19.23;;;9.80;;
76612;SDS011;65507;48.454;-2.058;2022-12-18T14:12:14;18.33;;;9.68;;
76612;SDS011;65507;48.454;-2.058;2022-12-18T14:15:01;17.55;;;9.25;;
76612;SDS011;65507;48.454;-2.058;2022-12-18T14:17:28;20.57;;;9.53;;
76612;SDS011;65507;48.454;-2.058;2022-12-18T14:19:53;20.27;;;10.52;;
76612;SDS011;65507;48.454;-2.058;2022-12-18T14:22:20;19.00;;;9.95;;
76612;SDS011;65507;48.454;-2.058;2022-12-18T14:27:37;25.17;;;10.95;;
76612;SDS011;65507;48.454;-2.058;2022-12-18T14:32:59;23.23;;;10.50;;
76612;SDS011;65507;48.454;-2.058;2022-12-18T14:35:26;25.67;;;11.05;;
76612;SDS011;65507;48.454;-2.058;2022-12-18T14:37:52;21.48;;;9.80;;
76612;SDS011;65507;48.454;-2.058;2022-12-18T14:40:17;21.85;;;10.52;;
76612;SDS011;65507;48.454;-2.058;2022-12-18T14:42:44;20.02;;;10.60;;
76612;SDS011;65507;48.454;-2.058;2022-12-18T14:48:51;21.85;;;11.20;;
76612;SDS011;65507;48.454;-2.058;2022-12-18T14:51:15;23.85;;;11.23;;
76612;SDS011;65507;48.454;-2.058;2022-12-18T14:53:44;26.88;;;10.85;;
76612;SDS011;65507;48.454;-2.058;2022-12-18T14:58:38;29.63;;;10.98;;
76612;SDS011;65507;48.454;-2.058;2022-12-18T15:01:04;22.30;;;10.25;;
76612;SDS011;65507;48.454;-2.058;2022-12-18T15:03:30;22.83;;;10.52;;
76612;SDS011;65507;48.454;-2.058;2022-12-18T15:05:58;21.17;;;10.23;;
76612;SDS011;65507;48.454;-2.058;2022-12-18T15:08:48;22.42;;;10.05;;
76612;SDS011;65507;48.454;-2.058;2022-12-18T15:14:38;22.77;;;10.57;;
76612;SDS011;65507;48.454;-2.058;2022-12-18T15:17:16;23.75;;;10.57;;
76612;SDS011;65507;48.454;-2.058;2022-12-18T15:19:44;18.08;;;9.02;;
76612;SDS011;65507;48.454;-2.058;2022-12-18T15:24:56;19.48;;;9.20;;
76612;SDS011;65507;48.454;-2.058;2022-12-18T15:27:35;23.42;;;9.75;;
76612;SDS011;65507;48.454;-2.058;2022-12-18T15:32:35;20.98;;;9.88;;
76612;SDS011;65507;48.454;-2.058;2022-12-18T15:37:36;20.10;;;10.55;;
76612;SDS011;65507;48.454;-2.058;2022-12-18T15:40:05;25.05;;;11.95;;
76612;SDS011;65507;48.454;-2.058;2022-12-18T15:42:33;24.20;;;10.88;;
76612;SDS011;65507;48.454;-2.058;2022-12-18T15:45:18;20.85;;;9.75;;
76612;SDS011;65507;48.454;-2.058;2022-12-18T15:47:43;21.92;;;10.73;;
76612;SDS011;65507;48.454;-2.058;2022-12-18T15:50:09;22.75;;;11.45;;
76612;SDS011;65507;48.454;-2.058;2022-12-18T15:52:45;21.27;;;10.15;;
76612;SDS011;65507;48.454;-2.058;2022-12-18T15:55:19;22.88;;;9.55;;
76612;SDS011;65507;48.454;-2.058;2022-12-18T15:58:05;23.60;;;9.95;;
76612;SDS011;65507;48.454;-2.058;2022-12-18T16:00:32;18.45;;;9.65;;
76612;SDS011;65507;48.454;-2.058;2022-12-18T16:02:59;20.75;;;10.07;;
76612;SDS011;65507;48.454;-2.058;2022-12-18T16:05:26;18.88;;;10.63;;
76612;SDS011;65507;48.454;-2.058;2022-12-18T16:07:52;18.15;;;10.57;;
76612;SDS011;65507;48.454;-2.058;2022-12-18T16:10:18;20.00;;;10.02;;
76612;SDS011;65507;48.454;-2.058;2022-12-18T16:12:44;21.50;;;9.95;;
76612;SDS011;65507;48.454;-2.058;2022-12-18T16:15:11;20.33;;;9.98;;
76612;SDS011;65507;48.454;-2.058;2022-12-18T16:17:39;16.35;;;9.02;;
76612;SDS011;65507;48.454;-2.058;2022-12-18T16:20:06;20.13;;;10.07;;
76612;SDS011;65507;48.454;-2.058;2022-12-18T16:22:43;23.23;;;9.88;;
76612;SDS011;65507;48.454;-2.058;2022-12-18T16:25:17;23.90;;;11.23;;
76612;SDS011;65507;48.454;-2.058;2022-12-18T16:27:47;19.10;;;10.00;;
76612;SDS011;65507;48.454;-2.058;2022-12-18T16:30:17;18.88;;;9.27;;
76612;SDS011;65507;48.454;-2.058;2022-12-18T16:32:47;22.10;;;10.13;;
76612;SDS011;65507;48.454;-2.058;2022-12-18T16:35:13;20.77;;;10.48;;
76612;SDS011;65507;48.454;-2.058;2022-12-18T16:40:07;22.35;;;9.27;;
76612;SDS011;65507;48.454;-2.058;2022-12-18T16:42:35;18.90;;;9.23;;
76612;SDS011;65507;48.454;-2.058;2022-12-18T16:45:02;17.33;;;9.73;;
76612;SDS011;65507;48.454;-2.058;2022-12-18T16:47:28;14.50;;;8.60;;
76612;SDS011;65507;48.454;-2.058;2022-12-18T16:49:54;14.43;;;8.73;;
76612;SDS011;65507;48.454;-2.058;2022-12-18T16:52:20;16.00;;;8.20;;
76612;SDS011;65507;48.454;-2.058;2022-12-18T16:54:46;17.35;;;8.50;;
76612;SDS011;65507;48.454;-2.058;2022-12-18T16:57:13;18.05;;;8.60;;
76612;SDS011;65507;48.454;-2.058;2022-12-18T16:59:41;14.82;;;8.55;;
76612;SDS011;65507;48.454;-2.058;2022-12-18T17:02:19;14.75;;;8.40;;
76612;SDS011;65507;48.454;-2.058;2022-12-18T17:04:47;14.02;;;7.85;;
76612;SDS011;65507;48.454;-2.058;2022-12-18T17:07:13;17.70;;;7.93;;
76612;SDS011;65507;48.454;-2.058;2022-12-18T17:09:39;19.73;;;8.35;;
76612;SDS011;65507;48.454;-2.058;2022-12-18T17:12:06;15.98;;;7.60;;
76612;SDS011;65507;48.454;-2.058;2022-12-18T17:14:33;14.27;;;7.45;;